Time;durP1;ratioP1;P1;durP2;ratioP2;P2;SDS_P1;SDS_P2;PMS_P1;PMS_P2;Temp;Humidity;BMP_temperature;BMP_pressure;BME280_temperature;BME280_humidity;BME280_pressure;Samples;Min_cycle;Max_cycle;Signal;HPM_P1;HPM_P2
2023/12/14 00:00:08;;;;;;;6.38;2.50;;;30.70;52.40;;;;;;5014058;28;20038;-89
2023/12/14 00:02:36;;;;;;;5.57;2.17;;;30.80;51.70;;;;;;5028662;28;20022;-85
2023/12/14 00:05:03;;;;;;;7.50;2.33;;;30.80;50.00;;;;;;5031920;28;20128;-83
2023/12/14 00:07:31;;;;;;;5.55;2.60;;;30.90;50.60;;;;;;5032237;28;20022;-84
2023/12/14 00:09:58;;;;;;;3.38;2.25;;;31.00;50.50;;;;;;5032661;28;20021;-81
2023/12/14 00:12:26;;;;;;;5.30;2.30;;;31.20;50.50;;;;;;5026841;28;20037;-80
2023/12/14 00:14:53;;;;;;;5.13;2.25;;;31.30;50.40;;;;;;5012449;28;20026;-84
2023/12/14 00:17:20;;;;;;;4.53;2.20;;;31.30;49.60;;;;;;5012712;28;20104;-81
2023/12/14 00:19:48;;;;;;;4.45;2.17;;;31.50;49.60;;;;;;5018554;28;20124;-84
2023/12/14 00:22:15;;;;;;;4.40;2.30;;;31.60;49.90;;;;;;5029607;28;20034;-85
2023/12/14 00:24:43;;;;;;;5.60;2.40;;;31.70;48.10;;;;;;5032837;28;20033;-85
2023/12/14 00:27:10;;;;;;;5.47;2.58;;;31.80;49.10;;;;;;5031319;28;20060;-83
2023/12/14 00:29:37;;;;;;;5.05;2.30;;;31.90;48.90;;;;;;5033323;28;20473;-86
2023/12/14 00:32:05;;;;;;;5.68;2.50;;;32.00;49.50;;;;;;5032971;28;20038;-81
2023/12/14 00:34:33;;;;;;;3.40;2.30;;;32.10;49.40;;;;;;5033558;28;20029;-80
2023/12/14 00:37:00;;;;;;;7.72;2.95;;;32.30;48.70;;;;;;5021697;28;20096;-86
2023/12/14 00:39:27;;;;;;;5.95;2.28;;;32.40;49.10;;;;;;5028978;28;20033;-87
2023/12/14 00:41:55;;;;;;;4.88;2.20;;;32.40;48.90;;;;;;5032915;28;20057;-85
2023/12/14 00:44:23;;;;;;;5.90;2.47;;;32.50;48.40;;;;;;5029528;28;20090;-82
2023/12/14 00:46:50;;;;;;;3.88;2.40;;;32.70;48.30;;;;;;5019266;28;20581;-82
2023/12/14 00:49:19;;;;;;;3.90;2.25;;;32.80;48.00;;;;;;5027393;28;20049;-81
2023/12/14 00:51:46;;;;;;;6.05;2.08;;;32.80;47.50;;;;;;5037601;28;20029;-83
2023/12/14 00:54:13;;;;;;;4.40;2.10;;;32.90;47.90;;;;;;5037959;28;20112;-81
2023/12/14 00:56:41;;;;;;;3.83;2.15;;;33.00;47.50;;;;;;5017313;28;20057;-79
2023/12/14 00:59:10;;;;;;;5.13;2.42;;;33.20;47.60;;;;;;5024640;28;20068;-84
2023/12/14 01:01:38;;;;;;;3.92;2.20;;;33.30;47.20;;;;;;5033919;28;20036;-82
2023/12/14 01:04:05;;;;;;;6.00;2.47;;;33.30;46.70;;;;;;5035855;28;20404;-84
2023/12/14 01:06:33;;;;;;;5.35;2.25;;;33.40;46.40;;;;;;5038513;28;20086;-83
2023/12/14 01:09:00;;;;;;;5.90;2.50;;;33.50;45.90;;;;;;5038589;28;20018;-77
2023/12/14 01:11:31;;;;;;;4.45;2.08;;;33.60;45.60;;;;;;5032931;28;20092;-77
2023/12/14 01:13:58;;;;;;;4.50;2.17;;;33.70;44.60;;;;;;5035118;28;20036;-76
2023/12/14 01:16:27;;;;;;;3.80;2.00;;;33.70;45.30;;;;;;5023509;28;20608;-72
2023/12/14 01:18:54;;;;;;;4.90;1.95;;;33.70;45.00;;;;;;5015391;28;20473;-76
2023/12/14 01:21:22;;;;;;;5.15;2.35;;;33.80;44.10;;;;;;5017527;28;20034;-75
2023/12/14 01:23:49;;;;;;;6.30;2.35;;;33.80;43.80;;;;;;5017260;28;20109;-75
2023/12/14 01:26:18;;;;;;;5.15;2.00;;;33.90;43.70;;;;;;5018821;28;20108;-81
2023/12/14 01:28:45;;;;;;;5.50;2.05;;;34.00;43.10;;;;;;5025827;28;20033;-75
2023/12/14 01:31:12;;;;;;;9.38;2.22;;;34.10;42.60;;;;;;5040878;28;20496;-74
2023/12/14 01:33:40;;;;;;;5.13;1.75;;;34.20;42.50;;;;;;5036120;28;20108;-81
2023/12/14 01:36:07;;;;;;;3.85;1.75;;;34.30;42.40;;;;;;5037934;28;20029;-76
2023/12/14 01:38:35;;;;;;;3.88;1.95;;;34.30;42.40;;;;;;5035534;28;20057;-86
2023/12/14 01:41:02;;;;;;;7.22;2.40;;;34.30;41.00;;;;;;5015234;28;20456;-78
2023/12/14 01:43:29;;;;;;;6.00;2.17;;;34.40;40.90;;;;;;5016889;28;20071;-81
2023/12/14 01:45:57;;;;;;;2.85;1.98;;;34.40;41.60;;;;;;5019613;28;20358;-76
2023/12/14 01:48:24;;;;;;;4.32;1.92;;;34.50;40.40;;;;;;5020186;28;20029;-78
2023/12/14 01:50:52;;;;;;;4.07;2.10;;;34.60;40.90;;;;;;5023694;28;20034;-78
2023/12/14 01:53:22;;;;;;;6.10;2.13;;;34.70;41.60;;;;;;5020351;28;20072;-77
2023/12/14 01:55:49;;;;;;;4.65;2.00;;;34.80;40.70;;;;;;5012629;28;20030;-74
2023/12/14 01:58:18;;;;;;;3.70;1.80;;;34.80;40.90;;;;;;5002425;28;20029;-79
2023/12/14 02:01:00;;;;;;;4.55;1.70;;;34.90;38.30;;;;;;5004309;28;20027;-74
2023/12/14 02:03:28;;;;;;;5.57;1.95;;;34.90;37.60;;;;;;5000735;28;20118;-75
2023/12/14 02:05:57;;;;;;;5.32;1.98;;;35.00;37.60;;;;;;5035020;28;20073;-76
2023/12/14 02:08:29;;;;;;;3.67;1.70;;;35.10;37.40;;;;;;5039572;28;20025;-75
2023/12/14 02:11:03;;;;;;;3.97;1.90;;;35.10;36.40;;;;;;5040098;28;20025;-77
2023/12/14 02:13:30;;;;;;;4.30;2.03;;;35.10;36.80;;;;;;5033586;28;20084;-77
2023/12/14 02:15:58;;;;;;;3.83;1.70;;;35.20;37.50;;;;;;5026253;28;20116;-78
2023/12/14 02:18:25;;;;;;;4.05;1.95;;;35.20;36.80;;;;;;5040077;28;20041;-77
2023/12/14 02:20:53;;;;;;;3.28;2.08;;;35.20;37.00;;;;;;5038307;28;20035;-82
2023/12/14 02:23:22;;;;;;;8.48;2.58;;;35.30;37.20;;;;;;5034854;28;20546;-78
2023/12/14 02:25:50;;;;;;;2.75;1.60;;;35.30;37.70;;;;;;5002985;28;20026;-78
2023/12/14 02:28:18;;;;;;;2.35;1.65;;;35.30;34.80;;;;;;5014528;28;20057;-83
2023/12/14 02:30:46;;;;;;;3.92;2.40;;;35.30;34.60;;;;;;5005681;28;20121;-80
2023/12/14 02:33:14;;;;;;;3.95;1.85;;;35.30;34.40;;;;;;4995021;28;20030;-82
2023/12/14 02:35:42;;;;;;;2.38;1.75;;;35.40;33.30;;;;;;5011300;28;20058;-77
2023/12/14 02:38:10;;;;;;;4.38;1.40;;;35.60;33.10;;;;;;5024796;28;20022;-82
2023/12/14 02:40:37;;;;;;;3.05;1.33;;;35.50;29.70;;;;;;5032413;28;20018;-80
2023/12/14 02:43:06;;;;;;;3.33;1.63;;;35.60;30.40;;;;;;5033505;28;20026;-82
2023/12/14 02:45:33;;;;;;;2.88;1.50;;;35.70;29.60;;;;;;5034049;28;20083;-77
2023/12/14 02:48:00;;;;;;;4.93;1.13;;;35.80;29.80;;;;;;5034305;28;20064;-81
2023/12/14 02:50:32;;;;;;;4.90;1.23;;;35.80;27.00;;;;;;5027628;28;20070;-80
2023/12/14 02:52:59;;;;;;;4.88;1.30;;;35.90;27.60;;;;;;5013328;28;20117;-81
2023/12/14 02:55:27;;;;;;;4.70;0.93;;;36.00;26.70;;;;;;5004040;28;20022;-82
2023/12/14 02:57:54;;;;;;;5.60;1.30;;;36.20;25.40;;;;;;5000652;28;20030;-81
2023/12/14 03:00:22;;;;;;;3.45;1.30;;;36.30;24.70;;;;;;5034544;28;20041;-81
2023/12/14 03:02:49;;;;;;;4.32;1.30;;;36.30;26.90;;;;;;5033986;28;20030;-80
2023/12/14 03:05:17;;;;;;;3.65;1.55;;;36.30;25.70;;;;;;5031741;28;20401;-82
2023/12/14 03:07:44;;;;;;;8.93;1.30;;;36.30;26.40;;;;;;5033436;28;20091;-81
2023/12/14 03:10:11;;;;;;;3.22;1.40;;;36.40;25.50;;;;;;5034013;28;20104;-80
2023/12/14 03:12:39;;;;;;;4.07;1.50;;;36.50;25.30;;;;;;5034025;28;20030;-78
2023/12/14 03:15:06;;;;;;;1.90;1.15;;;36.50;25.70;;;;;;5032367;28;20473;-79
2023/12/14 03:17:34;;;;;;;3.00;1.20;;;36.60;27.30;;;;;;5025937;28;20101;-81
2023/12/14 03:20:03;;;;;;;4.55;1.27;;;36.60;26.90;;;;;;5033508;28;20022;-81
2023/12/14 03:22:30;;;;;;;1.65;1.17;;;36.80;26.10;;;;;;5031416;28;20025;-82
2023/12/14 03:24:58;;;;;;;3.25;1.30;;;36.80;26.60;;;;;;5013635;28;20404;-80
2023/12/14 03:27:25;;;;;;;3.47;1.50;;;36.80;26.00;;;;;;5012975;28;20029;-83
2023/12/14 03:29:52;;;;;;;3.90;1.55;;;36.80;25.70;;;;;;5013494;28;20508;-79
2023/12/14 03:32:20;;;;;;;2.65;1.38;;;36.90;26.40;;;;;;5020058;28;20033;-83
2023/12/14 03:34:47;;;;;;;3.03;1.23;;;37.00;26.80;;;;;;5031829;28;20021;-79
2023/12/14 03:37:14;;;;;;;3.33;1.27;;;36.90;26.70;;;;;;5033423;28;20424;-83
2023/12/14 03:39:42;;;;;;;5.88;1.30;;;36.90;27.30;;;;;;5021069;28;20036;-82
2023/12/14 03:42:09;;;;;;;3.20;1.27;;;37.00;27.00;;;;;;5013723;28;20149;-79
2023/12/14 03:44:36;;;;;;;1.38;1.02;;;37.00;27.20;;;;;;5013695;28;20109;-83
2023/12/14 03:47:04;;;;;;;1.90;1.35;;;37.00;27.30;;;;;;5013217;28;20381;-83
2023/12/14 03:49:31;;;;;;;4.53;1.58;;;37.10;27.60;;;;;;5012568;28;20366;-81
2023/12/14 03:51:59;;;;;;;4.63;1.50;;;37.00;27.80;;;;;;5017453;28;20401;-81
2023/12/14 03:54:26;;;;;;;4.25;1.80;;;37.00;27.10;;;;;;5013401;28;20021;-79
2023/12/14 03:56:54;;;;;;;15.10;2.30;;;36.90;27.70;;;;;;5028311;28;20030;-80
2023/12/14 03:59:22;;;;;;;2.22;1.40;;;36.90;27.30;;;;;;5012312;28;20053;-82
2023/12/14 04:01:49;;;;;;;4.22;1.35;;;36.90;27.50;;;;;;5013245;28;20026;-80
2023/12/14 04:04:17;;;;;;;2.50;1.42;;;36.90;27.30;;;;;;5012843;28;20550;-83
2023/12/14 04:06:44;;;;;;;3.08;1.40;;;36.90;27.50;;;;;;5012685;28;20029;-82
2023/12/14 04:09:11;;;;;;;4.18;1.63;;;36.80;27.80;;;;;;5013961;28;20033;-78
2023/12/14 04:11:39;;;;;;;2.13;1.40;;;36.90;27.90;;;;;;5013477;28;20033;-79
2023/12/14 04:14:06;;;;;;;3.65;1.50;;;37.00;27.90;;;;;;5012921;28;20022;-82
2023/12/14 04:16:33;;;;;;;3.33;1.60;;;37.00;25.90;;;;;;5024795;28;20128;-79
2023/12/14 04:19:01;;;;;;;4.63;1.33;;;37.20;26.60;;;;;;5030617;28;20025;-88
2023/12/14 04:21:28;;;;;;;4.93;1.35;;;37.30;25.70;;;;;;5030406;28;20477;-80
2023/12/14 04:23:55;;;;;;;2.05;1.23;;;37.20;26.90;;;;;;5022205;28;20013;-75
2023/12/14 04:26:23;;;;;;;5.82;1.40;;;37.20;26.30;;;;;;5030294;28;20392;-79
2023/12/14 04:28:50;;;;;;;3.05;1.00;;;37.10;25.10;;;;;;5014144;28;20022;-76
2023/12/14 04:31:18;;;;;;;3.78;1.20;;;37.20;24.70;;;;;;5014386;28;20046;-76
2023/12/14 04:33:45;;;;;;;2.80;1.15;;;37.20;24.00;;;;;;5016513;28;20053;-78
2023/12/14 04:36:12;;;;;;;4.95;1.40;;;37.20;23.70;;;;;;5016317;28;20034;-77
2023/12/14 04:38:40;;;;;;;2.67;1.17;;;37.30;23.60;;;;;;5035006;28;20357;-82
2023/12/14 04:41:07;;;;;;;4.30;1.17;;;37.40;23.10;;;;;;5033647;28;20033;-78
2023/12/14 04:43:34;;;;;;;2.00;1.10;;;37.40;24.40;;;;;;5026223;28;20057;-78
2023/12/14 04:46:02;;;;;;;2.05;1.08;;;37.40;24.00;;;;;;5015578;28;20115;-83
2023/12/14 04:48:30;;;;;;;2.97;1.20;;;37.30;24.40;;;;;;5015003;28;20084;-82
2023/12/14 04:50:58;;;;;;;5.80;1.40;;;37.30;23.60;;;;;;5015022;28;20496;-76
2023/12/14 04:53:25;;;;;;;2.35;1.17;;;37.30;23.80;;;;;;5013461;28;20468;-79
2023/12/14 04:55:52;;;;;;;4.75;1.02;;;37.20;23.90;;;;;;5010345;28;20030;-75
2023/12/14 04:58:20;;;;;;;3.67;1.20;;;37.20;24.70;;;;;;5015309;28;20072;-81
2023/12/14 05:00:48;;;;;;;2.80;1.30;;;37.10;24.60;;;;;;5021581;28;20030;-88
2023/12/14 05:03:15;;;;;;;4.68;1.10;;;37.10;23.90;;;;;;5015927;28;20488;-84
2023/12/14 05:05:42;;;;;;;1.95;1.00;;;37.20;23.90;;;;;;5021773;28;20088;-76
2023/12/14 05:08:10;;;;;;;5.28;1.25;;;37.20;24.80;;;;;;5022482;28;20110;-82
2023/12/14 05:10:37;;;;;;;2.30;1.30;;;37.10;23.60;;;;;;5025162;28;20428;-76
2023/12/14 05:13:06;;;;;;;4.60;1.50;;;37.20;23.50;;;;;;5023288;28;20045;-83
2023/12/14 05:15:34;;;;;;;2.45;1.20;;;37.20;24.80;;;;;;5017381;28;20014;-79
2023/12/14 05:18:01;;;;;;;3.28;1.10;;;37.30;23.10;;;;;;5018265;28;20026;-88
2023/12/14 05:20:29;;;;;;;2.25;1.20;;;37.30;23.30;;;;;;5016710;28;20036;-83
2023/12/14 05:22:56;;;;;;;4.40;1.30;;;37.40;23.20;;;;;;5016166;28;20026;-83
2023/12/14 05:25:24;;;;;;;3.50;1.20;;;37.40;24.20;;;;;;5015830;28;20053;-87
2023/12/14 05:27:52;;;;;;;1.15;1.00;;;37.40;25.20;;;;;;5032761;28;20026;-89
2023/12/14 05:30:20;;;;;;;1.48;0.93;;;37.50;24.20;;;;;;5033165;28;20033;-90
2023/12/14 05:32:50;;;;;;;3.10;1.15;;;37.60;23.60;;;;;;5014780;28;20065;-81
2023/12/14 05:35:18;;;;;;;3.67;1.00;;;37.70;24.50;;;;;;5010930;28;20037;-86
2023/12/14 05:37:45;;;;;;;3.03;1.20;;;37.60;24.80;;;;;;5029159;28;20065;-89
2023/12/14 05:40:13;;;;;;;2.58;0.98;;;37.60;23.50;;;;;;5016258;28;20034;-84
2023/12/14 05:42:52;;;;;;;4.35;0.90;;;37.80;23.30;;;;;;5016811;28;20026;-80
2023/12/14 05:45:19;;;;;;;5.97;1.10;;;37.60;22.00;;;;;;5017729;28;20033;-87
2023/12/14 05:47:47;;;;;;;2.13;1.02;;;37.70;22.70;;;;;;5017469;28;20026;-81
2023/12/14 05:50:15;;;;;;;3.78;1.05;;;37.70;23.30;;;;;;5018919;28;20026;-85
2023/12/14 05:52:45;;;;;;;2.83;1.00;;;37.70;22.10;;;;;;5016298;28;20072;-84
2023/12/14 05:55:13;;;;;;;3.00;1.30;;;37.80;23.20;;;;;;5016831;28;20033;-77
2023/12/14 05:57:40;;;;;;;6.07;1.42;;;37.80;23.20;;;;;;5016492;28;20026;-83
2023/12/14 06:00:08;;;;;;;2.35;1.10;;;37.80;22.70;;;;;;5027112;28;20365;-85
2023/12/14 06:02:36;;;;;;;2.30;1.17;;;37.80;22.30;;;;;;5035985;28;20574;-77
2023/12/14 06:05:08;;;;;;;3.38;1.08;;;37.80;22.80;;;;;;5035458;28;20045;-77
2023/12/14 06:07:35;;;;;;;2.70;1.02;;;37.80;23.80;;;;;;5025965;28;20034;-79
2023/12/14 06:10:03;;;;;;;2.63;1.10;;;37.80;23.50;;;;;;5014521;28;20025;-78
2023/12/14 06:12:32;;;;;;;3.72;1.02;;;37.80;23.40;;;;;;5015457;28;20469;-79
2023/12/14 06:15:01;;;;;;;1.55;0.90;;;37.80;23.50;;;;;;5016994;28;20030;-81
2023/12/14 06:17:29;;;;;;;2.55;1.20;;;37.80;23.30;;;;;;5015896;28;20030;-76
2023/12/14 06:19:56;;;;;;;1.23;0.93;;;37.80;22.20;;;;;;5015206;28;20072;-88
2023/12/14 06:22:24;;;;;;;3.70;1.27;;;37.80;23.00;;;;;;5016067;28;20029;-86
2023/12/14 06:24:51;;;;;;;1.48;1.10;;;37.80;22.60;;;;;;5016367;28;20033;-84
2023/12/14 06:27:19;;;;;;;2.72;1.10;;;37.80;22.50;;;;;;5014166;28;20599;-87
2023/12/14 06:29:46;;;;;;;2.80;1.40;;;37.90;23.10;;;;;;5015024;28;20026;-82
2023/12/14 06:32:13;;;;;;;2.17;1.10;;;37.90;23.20;;;;;;5014611;28;20087;-79
2023/12/14 06:34:41;;;;;;;3.60;1.30;;;37.90;23.90;;;;;;5013423;28;20026;-85
2023/12/14 06:37:08;;;;;;;4.93;1.25;;;37.90;23.50;;;;;;5014915;28;20481;-81
2023/12/14 06:39:36;;;;;;;2.15;1.10;;;37.90;24.50;;;;;;5017155;28;20053;-79
2023/12/14 06:42:03;;;;;;;2.30;1.10;;;37.90;23.30;;;;;;5016745;28;20033;-79
2023/12/14 06:44:31;;;;;;;3.92;1.10;;;37.90;24.10;;;;;;5021668;28;20056;-89
2023/12/14 06:46:59;;;;;;;3.13;1.02;;;37.90;23.30;;;;;;5029077;28;20061;-79
2023/12/14 06:49:27;;;;;;;3.80;1.20;;;37.90;23.50;;;;;;5016307;28;20026;-82
2023/12/14 06:51:54;;;;;;;2.47;1.20;;;37.80;23.00;;;;;;5013132;28;20037;-81
2023/12/14 06:54:21;;;;;;;3.25;1.10;;;37.80;23.00;;;;;;5014657;28;20025;-80
2023/12/14 06:56:49;;;;;;;2.53;1.38;;;37.80;24.00;;;;;;5021738;28;20543;-80
2023/12/14 06:59:16;;;;;;;4.60;1.30;;;37.80;23.50;;;;;;5012676;28;20022;-78
2023/12/14 07:01:44;;;;;;;2.33;1.10;;;37.80;24.30;;;;;;5013799;28;20041;-78
2023/12/14 07:04:11;;;;;;;1.63;1.13;;;37.80;24.70;;;;;;5006199;28;20117;-89
2023/12/14 07:06:38;;;;;;;2.30;1.05;;;37.70;24.40;;;;;;5007229;28;20031;-79
2023/12/14 07:09:06;;;;;;;3.03;1.20;;;37.70;24.00;;;;;;5027165;28;20052;-78
2023/12/14 07:11:33;;;;;;;3.13;1.10;;;37.70;24.20;;;;;;5011977;28;20037;-86
2023/12/14 07:14:00;;;;;;;1.65;1.20;;;37.70;25.40;;;;;;5013268;28;20018;-78
2023/12/14 07:16:28;;;;;;;2.38;1.10;;;37.70;24.30;;;;;;5010127;28;20025;-80
2023/12/14 07:18:55;;;;;;;2.67;1.08;;;37.70;23.60;;;;;;5017848;28;20017;-81
2023/12/14 07:21:23;;;;;;;3.25;1.10;;;37.70;24.50;;;;;;5018825;28;20026;-80
2023/12/14 07:23:50;;;;;;;2.15;1.08;;;37.60;24.60;;;;;;5019251;28;20022;-83
2023/12/14 07:26:17;;;;;;;3.47;1.00;;;37.60;23.70;;;;;;5015468;28;20037;-78
2023/12/14 07:28:45;;;;;;;1.38;1.13;;;37.60;24.80;;;;;;5030387;28;20469;-80
2023/12/14 07:31:12;;;;;;;2.28;1.13;;;37.50;24.00;;;;;;5018330;28;20662;-83
2023/12/14 07:33:40;;;;;;;3.60;1.40;;;37.60;24.00;;;;;;5006350;28;20037;-76
2023/12/14 07:36:08;;;;;;;1.83;0.98;;;37.60;25.50;;;;;;5011867;28;20026;-76
2023/12/14 07:38:35;;;;;;;3.63;1.40;;;37.60;24.50;;;;;;5019069;28;20022;-80
2023/12/14 07:41:03;;;;;;;2.22;1.42;;;37.60;24.80;;;;;;5012518;28;20030;-80
2023/12/14 07:43:30;;;;;;;2.35;1.50;;;37.60;24.10;;;;;;5012833;28;20022;-84
2023/12/14 07:45:59;;;;;;;2.58;1.40;;;37.60;24.50;;;;;;5019572;28;20486;-79
2023/12/14 07:48:28;;;;;;;4.47;1.38;;;37.60;25.00;;;;;;5013709;28;20026;-80
2023/12/14 07:50:55;;;;;;;1.77;1.20;;;37.40;24.40;;;;;;5010436;28;20042;-77
2023/12/14 07:53:23;;;;;;;3.38;1.70;;;37.40;24.50;;;;;;5014994;28;20117;-84
2023/12/14 07:55:50;;;;;;;3.03;1.10;;;37.40;24.40;;;;;;5015074;28;20041;-83
2023/12/14 07:58:18;;;;;;;1.63;1.30;;;37.30;24.80;;;;;;5021118;28;20492;-87
2023/12/14 08:00:45;;;;;;;2.65;1.20;;;37.30;25.10;;;;;;5015389;28;20548;-77
2023/12/14 08:03:13;;;;;;;2.00;1.10;;;37.20;24.50;;;;;;5016228;28;20037;-80
2023/12/14 08:05:40;;;;;;;2.53;1.27;;;37.10;24.90;;;;;;5014201;28;20056;-81
2023/12/14 08:08:07;;;;;;;1.80;1.10;;;37.10;24.70;;;;;;5013152;28;20160;-82
2023/12/14 08:10:35;;;;;;;2.55;1.67;;;36.90;25.20;;;;;;5014704;28;20057;-85
2023/12/14 08:13:02;;;;;;;6.10;3.95;;;36.80;25.80;;;;;;5014634;28;20053;-84
2023/12/14 08:15:30;;;;;;;3.42;2.40;;;36.60;25.00;;;;;;5014989;28;20022;-82
2023/12/14 08:17:58;;;;;;;2.53;1.52;;;36.40;25.20;;;;;;5007413;28;20037;-83
2023/12/14 08:20:25;;;;;;;3.58;1.63;;;36.30;25.00;;;;;;5016486;28;20026;-81
2023/12/14 08:22:53;;;;;;;2.40;1.10;;;36.20;25.10;;;;;;5017892;28;20030;-82
2023/12/14 08:25:20;;;;;;;1.92;1.05;;;36.00;25.20;;;;;;5014356;28;20056;-82
2023/12/14 08:27:48;;;;;;;1.70;1.20;;;36.00;25.60;;;;;;5020342;28;20109;-81
2023/12/14 08:30:15;;;;;;;4.15;1.08;;;35.80;26.40;;;;;;5028420;28;20017;-84
2023/12/14 08:32:43;;;;;;;2.35;1.10;;;35.70;25.80;;;;;;5020956;28;20425;-85
2023/12/14 08:35:10;;;;;;;1.75;1.65;;;35.60;26.80;;;;;;5016528;28;20061;-83
2023/12/14 08:37:37;;;;;;;2.95;1.05;;;35.50;26.30;;;;;;5013639;28;20503;-80
2023/12/14 08:40:07;;;;;;;2.10;1.15;;;35.40;26.20;;;;;;5013503;28;20018;-83
2023/12/14 08:42:35;;;;;;;3.28;1.00;;;35.30;26.10;;;;;;5017779;28;20041;-79
2023/12/14 08:45:02;;;;;;;2.95;1.20;;;35.20;26.60;;;;;;5015050;28;20496;-80
2023/12/14 08:47:30;;;;;;;2.95;1.20;;;35.10;26.30;;;;;;5016305;28;20133;-85
2023/12/14 08:49:58;;;;;;;3.90;1.10;;;35.00;26.80;;;;;;5015630;28;20508;-80
2023/12/14 08:52:26;;;;;;;2.88;1.20;;;35.00;27.50;;;;;;5016622;28;20041;-79
2023/12/14 08:54:53;;;;;;;1.20;1.08;;;34.90;26.90;;;;;;5024341;28;20033;-84
2023/12/14 08:57:21;;;;;;;4.05;1.20;;;34.80;27.90;;;;;;5015235;28;20505;-81
2023/12/14 08:59:48;;;;;;;1.55;1.00;;;34.80;27.90;;;;;;5016401;28;20369;-83
2023/12/14 09:02:17;;;;;;;4.32;1.33;;;34.70;28.20;;;;;;5015081;28;20061;-78
2023/12/14 09:04:44;;;;;;;5.05;1.17;;;34.60;27.70;;;;;;5014867;28;20069;-78
2023/12/14 09:07:12;;;;;;;3.53;1.00;;;34.50;29.20;;;;;;5016593;28;20097;-80
2023/12/14 09:09:41;;;;;;;2.15;1.00;;;34.40;29.30;;;;;;5017573;28;20492;-77
2023/12/14 09:12:09;;;;;;;2.47;1.10;;;34.40;28.40;;;;;;5014924;28;20046;-88
2023/12/14 09:14:39;;;;;;;2.03;1.13;;;34.30;29.10;;;;;;5016077;28;20026;-80
2023/12/14 09:17:06;;;;;;;1.05;0.85;;;34.20;28.70;;;;;;5028192;28;20026;-87
2023/12/14 09:19:35;;;;;;;2.60;1.15;;;34.10;28.70;;;;;;5015923;28;20022;-83
2023/12/14 09:22:03;;;;;;;2.47;0.93;;;34.00;28.70;;;;;;5017758;28;20030;-78
2023/12/14 09:24:30;;;;;;;2.03;1.10;;;33.90;28.40;;;;;;5015939;28;20030;-82
2023/12/14 09:26:57;;;;;;;4.75;1.85;;;33.90;29.30;;;;;;5016169;28;20033;-85
2023/12/14 09:29:25;;;;;;;7.22;5.85;;;33.90;29.40;;;;;;5016791;28;20029;-79
2023/12/14 09:31:52;;;;;;;18.08;4.18;;;33.80;29.70;;;;;;5013500;28;20067;-78
2023/12/14 09:34:22;;;;;;;23.35;5.57;;;33.60;38.80;;;;;;5013547;28;20551;-83
2023/12/14 09:36:50;;;;;;;31.20;7.57;;;32.90;44.20;;;;;;5014505;28;20393;-84
2023/12/14 09:39:19;;;;;;;31.90;6.97;;;32.30;46.90;;;;;;5014873;28;20497;-83
2023/12/14 09:41:47;;;;;;;27.33;6.53;;;31.70;49.00;;;;;;5016998;28;20037;-86
2023/12/14 09:44:15;;;;;;;32.40;6.93;;;31.10;50.70;;;;;;5016929;28;20057;-84
2023/12/14 09:46:48;;;;;;;28.70;7.18;;;30.80;52.50;;;;;;5032522;28;20028;-84
2023/12/14 09:49:18;;;;;;;30.35;7.28;;;30.30;53.70;;;;;;5030211;28;20117;-82
2023/12/14 09:51:46;;;;;;;29.52;7.90;;;30.00;55.00;;;;;;5027898;28;20056;-81
2023/12/14 09:54:15;;;;;;;29.98;7.05;;;29.70;56.30;;;;;;5022499;28;20018;-83
2023/12/14 09:56:49;;;;;;;29.33;6.47;;;29.30;56.90;;;;;;5015915;28;20029;-77
2023/12/14 09:59:16;;;;;;;35.50;7.13;;;29.10;58.00;;;;;;5012061;28;20033;-80
2023/12/14 10:01:44;;;;;;;28.25;6.57;;;28.80;59.30;;;;;;5015686;28;20424;-79
2023/12/14 10:04:14;;;;;;;37.50;7.32;;;28.50;60.20;;;;;;5012462;28;20164;-85
2023/12/14 10:06:43;;;;;;;33.20;7.15;;;28.30;61.30;;;;;;5019249;28;20022;-87
2023/12/14 10:09:18;;;;;;;31.95;7.35;;;28.00;61.80;;;;;;5024387;28;20033;-83
2023/12/14 10:11:46;;;;;;;30.52;7.30;;;27.80;62.60;;;;;;5019065;28;20032;-81
2023/12/14 10:14:21;;;;;;;36.85;7.07;;;27.70;63.40;;;;;;5028026;28;20399;-89
2023/12/14 10:16:50;;;;;;;30.00;6.97;;;27.60;63.90;;;;;;5023589;28;20052;-86
2023/12/14 10:19:21;;;;;;;33.45;7.00;;;27.50;64.60;;;;;;5049437;28;20122;-87
2023/12/14 10:21:49;;;;;;;31.42;6.75;;;27.30;65.80;;;;;;5034299;28;20530;-80
2023/12/14 10:24:18;;;;;;;28.60;6.55;;;27.00;66.50;;;;;;5020405;28;20037;-82
2023/12/14 10:26:52;;;;;;;30.33;6.00;;;26.80;66.90;;;;;;5018269;28;20022;-78
2023/12/14 10:29:19;;;;;;;31.85;6.50;;;26.80;67.40;;;;;;5022686;28;20032;-84
2023/12/14 10:31:48;;;;;;;32.53;6.93;;;26.70;67.60;;;;;;5033742;28;20048;-84
2023/12/14 10:34:16;;;;;;;27.40;6.28;;;26.60;68.30;;;;;;5019371;28;20030;-84
2023/12/14 10:36:46;;;;;;;32.05;6.82;;;26.50;68.40;;;;;;5015890;28;20058;-78
2023/12/14 10:39:16;;;;;;;27.60;6.28;;;26.60;68.60;;;;;;5015758;28;20053;-82
2023/12/14 10:41:50;;;;;;;29.17;6.05;;;26.50;68.80;;;;;;5012913;28;20022;-84
2023/12/14 10:44:18;;;;;;;29.50;6.30;;;26.50;69.00;;;;;;5013794;28;20100;-83
2023/12/14 10:46:49;;;;;;;37.58;6.82;;;26.40;69.20;;;;;;5015959;28;20109;-77
2023/12/14 10:49:16;;;;;;;31.42;5.75;;;26.30;69.40;;;;;;5011260;28;20018;-78
2023/12/14 10:51:44;;;;;;;36.28;6.03;;;26.20;69.90;;;;;;5012463;28;20042;-83
2023/12/14 10:54:12;;;;;;;32.08;6.53;;;26.10;70.20;;;;;;5014403;28;20045;-78
2023/12/14 10:56:39;;;;;;;29.80;5.65;;;26.00;70.40;;;;;;5018691;28;20025;-82
2023/12/14 10:59:07;;;;;;;30.35;6.78;;;26.00;70.50;;;;;;5024547;28;20023;-84
2023/12/14 11:01:39;;;;;;;30.50;6.57;;;25.90;70.60;;;;;;5018828;28;20027;-82
2023/12/14 11:04:13;;;;;;;30.35;5.75;;;25.90;70.70;;;;;;5005947;28;20042;-79
2023/12/14 11:06:43;;;;;;;32.35;5.80;;;25.80;71.10;;;;;;5018452;28;20060;-79
2023/12/14 11:09:14;;;;;;;32.13;6.30;;;25.70;71.40;;;;;;5032172;28;20029;-79
2023/12/14 11:11:59;;;;;;;33.33;5.68;;;25.70;71.50;;;;;;5017674;28;20045;-84
2023/12/14 11:14:28;;;;;;;31.85;6.00;;;25.60;71.60;;;;;;5032363;28;20083;-82
2023/12/14 11:17:06;;;;;;;26.30;5.03;;;25.60;71.60;;;;;;5014550;28;20124;-78
2023/12/14 11:19:33;;;;;;;25.50;5.55;;;25.50;71.70;;;;;;5013277;28;20550;-84
2023/12/14 11:22:12;;;;;;;30.42;5.50;;;25.50;72.10;;;;;;5012518;28;20022;-83
2023/12/14 11:24:43;;;;;;;25.33;4.95;;;25.40;72.10;;;;;;5020360;28;20022;-83
2023/12/14 11:27:12;;;;;;;30.85;5.65;;;25.40;72.20;;;;;;5032583;28;20037;-80
2023/12/14 11:29:41;;;;;;;29.50;5.97;;;25.40;72.20;;;;;;5029177;28;20030;-80
2023/12/14 11:32:09;;;;;;;24.38;5.03;;;25.40;72.10;;;;;;5016055;28;20072;-81
2023/12/14 11:34:39;;;;;;;24.20;4.18;;;25.40;72.10;;;;;;5012892;28;20025;-83
2023/12/14 11:37:07;;;;;;;23.58;4.95;;;25.40;72.00;;;;;;5012373;28;20033;-80
2023/12/14 11:39:34;;;;;;;31.60;5.53;;;25.40;71.80;;;;;;5014835;28;20453;-85
2023/12/14 11:42:04;;;;;;;30.17;5.15;;;25.30;71.90;;;;;;5027830;28;20391;-78
2023/12/14 11:44:31;;;;;;;20.40;4.38;;;25.20;72.30;;;;;;5015493;28;20037;-83
2023/12/14 11:46:59;;;;;;;20.55;4.30;;;25.10;72.60;;;;;;5010634;28;20018;-76
2023/12/14 11:49:27;;;;;;;28.70;4.60;;;25.10;72.60;;;;;;5011127;28;20045;-82
2023/12/14 11:51:56;;;;;;;20.42;4.40;;;25.00;72.60;;;;;;5018142;28;20046;-77
2023/12/14 11:54:24;;;;;;;31.45;4.90;;;25.10;72.70;;;;;;5016485;28;20102;-81
2023/12/14 11:56:51;;;;;;;27.00;5.10;;;25.10;72.50;;;;;;5011475;28;20385;-77
2023/12/14 11:59:20;;;;;;;23.48;4.90;;;25.00;72.60;;;;;;5007616;28;20037;-79
2023/12/14 12:02:02;;;;;;;23.95;4.80;;;25.00;72.80;;;;;;5022933;28;20018;-78
2023/12/14 12:04:30;;;;;;;23.83;4.50;;;24.90;72.90;;;;;;5010190;28;20050;-78
2023/12/14 12:07:18;;;;;;;25.40;4.57;;;24.90;73.00;;;;;;5013563;28;21252;-79
2023/12/14 12:09:45;;;;;;;26.35;4.50;;;24.90;72.90;;;;;;5006458;28;20029;-78
2023/12/14 12:12:13;;;;;;;30.40;4.85;;;24.90;72.80;;;;;;5007920;28;20038;-77
2023/12/14 12:14:41;;;;;;;17.58;4.10;;;24.90;72.70;;;;;;5005784;28;20555;-78
2023/12/14 12:17:09;;;;;;;27.08;4.43;;;24.80;72.90;;;;;;5006239;28;20030;-83
2023/12/14 12:19:38;;;;;;;24.52;4.78;;;24.90;72.70;;;;;;5005217;28;20018;-78
2023/12/14 12:22:05;;;;;;;23.35;4.85;;;24.90;72.70;;;;;;5005922;28;20018;-83
2023/12/14 12:24:32;;;;;;;26.67;5.00;;;24.80;72.70;;;;;;5005901;28;20077;-77
2023/12/14 12:27:00;;;;;;;25.40;4.43;;;24.90;72.70;;;;;;5020802;28;20492;-84
2023/12/14 12:29:28;;;;;;;22.67;4.35;;;24.90;72.90;;;;;;5015563;28;20022;-77
2023/12/14 12:31:55;;;;;;;23.10;4.90;;;24.90;72.80;;;;;;5006484;28;20037;-78
2023/12/14 12:34:23;;;;;;;23.08;4.20;;;24.90;72.70;;;;;;5009227;28;20492;-79
2023/12/14 12:36:50;;;;;;;25.52;3.70;;;24.90;72.60;;;;;;5016028;28;20033;-79
2023/12/14 12:39:18;;;;;;;27.20;4.93;;;24.80;72.60;;;;;;5015279;28;20032;-82
2023/12/14 12:41:45;;;;;;;20.52;4.03;;;24.80;72.60;;;;;;5009183;28;20054;-78
2023/12/14 12:44:12;;;;;;;21.20;4.03;;;24.80;72.40;;;;;;5013437;28;20599;-79
2023/12/14 12:46:40;;;;;;;26.55;4.38;;;24.80;72.20;;;;;;5013813;28;20524;-78